Time;durP1;ratioP1;P1;durP2;ratioP2;P2;SDS_P1;SDS_P2;PMS_P1;PMS_P2;Temp;Humidity;BMP_temperature;BMP_pressure;BME280_temperature;BME280_humidity;BME280_pressure;Samples;Min_cycle;Max_cycle;Signal;HPM_P1;HPM_P2
2021/03/12 00:01:05;;;;;;;8.73;1.13;;;;;;;3.79;85.96;99126.38;5138042;27;20467;-52
2021/03/12 00:03:33;;;;;;;3.97;1.00;;;;;;;3.81;85.96;99127.31;5133609;27;20472;-54
2021/03/12 00:06:03;;;;;;;5.13;1.00;;;;;;;3.85;85.69;99138.53;5136990;27;20790;-51
2021/03/12 00:08:31;;;;;;;3.00;0.90;;;;;;;3.87;85.62;99137.78;5136371;27;20926;-56
2021/03/12 00:10:58;;;;;;;5.67;1.17;;;;;;;3.89;85.65;99136.16;5141576;27;20784;-55
2021/03/12 00:13:25;;;;;;;2.80;0.70;;;;;;;3.91;85.43;99139.66;5143030;27;20472;-52
2021/03/12 00:15:53;;;;;;;3.40;0.83;;;;;;;3.94;85.90;99153.38;5146857;27;20445;-57
2021/03/12 00:18:24;;;;;;;5.23;1.30;;;;;;;3.88;87.15;99164.16;5150610;27;20808;-54
2021/03/12 00:20:50;;;;;;;7.83;2.30;;;;;;;3.84;87.83;99159.75;5150869;27;20465;-56
2021/03/12 00:23:17;;;;;;;6.97;1.27;;;;;;;3.79;87.93;99162.09;5149965;27;20554;-51
2021/03/12 00:25:45;;;;;;;7.87;1.60;;;;;;;3.77;88.19;99161.16;5152460;27;20530;-55
2021/03/12 00:28:13;;;;;;;8.63;2.23;;;;;;;3.78;88.08;99170.56;5147884;27;20465;-53
2021/03/12 00:30:41;;;;;;;7.50;2.00;;;;;;;3.80;88.19;99181.72;5153215;27;20430;-55
2021/03/12 00:33:08;;;;;;;7.57;2.13;;;;;;;3.78;87.79;99179.09;5146679;27;20840;-55
2021/03/12 00:35:36;;;;;;;10.83;3.80;;;;;;;3.86;87.89;99181.09;5151503;27;20422;-55
2021/03/12 00:38:03;;;;;;;15.80;6.70;;;;;;;3.98;88.18;99193.50;5133054;27;20461;-55
2021/03/12 00:40:32;;;;;;;7.80;1.70;;;;;;;4.02;87.54;99203.06;5152366;27;20455;-58
2021/03/12 00:42:59;;;;;;;4.80;1.37;;;;;;;3.97;87.06;99189.22;5148703;27;20475;-56
2021/03/12 00:45:28;;;;;;;5.83;1.57;;;;;;;3.85;87.49;99195.53;5150621;27;20510;-53
2021/03/12 00:47:55;;;;;;;3.30;1.27;;;;;;;3.81;87.38;99193.66;5150050;27;20446;-51
2021/03/12 00:50:26;;;;;;;13.03;2.03;;;;;;;3.78;87.82;99194.41;5143348;27;20800;-54
2021/03/12 00:52:53;;;;;;;6.63;1.30;;;;;;;3.80;87.49;99201.25;5133116;27;20775;-53
2021/03/12 00:55:20;;;;;;;7.87;1.83;;;;;;;3.80;87.60;99196.13;5118018;27;20463;-56
2021/03/12 00:57:47;;;;;;;4.10;1.83;;;;;;;3.81;87.47;99211.53;5124225;27;20471;-53
2021/03/12 01:00:15;;;;;;;5.73;1.93;;;;;;;3.77;87.49;99207.06;5119501;27;20809;-51
2021/03/12 01:02:41;;;;;;;4.57;1.20;;;;;;;3.79;87.09;99210.56;5120694;27;20440;-51
2021/03/12 01:05:09;;;;;;;2.67;0.90;;;;;;;3.77;87.19;99214.72;5117490;27;20495;-51
2021/03/12 01:07:37;;;;;;;6.40;1.10;;;;;;;3.77;86.67;99218.16;5118575;27;20458;-57
2021/03/12 01:10:06;;;;;;;3.90;1.33;;;;;;;3.78;86.50;99219.03;5116247;27;20438;-52
2021/03/12 01:12:33;;;;;;;6.47;1.23;;;;;;;3.83;85.82;99212.44;5114400;27;20484;-52
2021/03/12 01:15:00;;;;;;;3.97;0.97;;;;;;;3.84;85.57;99214.19;5130589;27;20470;-52
2021/03/12 01:17:26;;;;;;;4.00;1.20;;;;;;;3.83;85.91;99217.56;5120005;27;20581;-49
2021/03/12 01:19:53;;;;;;;6.00;1.17;;;;;;;3.83;85.54;99221.78;5121311;27;20446;-55
2021/03/12 01:22:20;;;;;;;2.40;1.10;;;;;;;3.85;85.22;99215.94;5116208;27;20556;-55
2021/03/12 01:24:47;;;;;;;7.70;0.90;;;;;;;3.91;84.93;99221.31;5120227;27;20520;-54
2021/03/12 01:27:15;;;;;;;4.33;1.00;;;;;;;3.89;84.69;99217.81;5114786;27;20554;-55
2021/03/12 01:29:42;;;;;;;3.23;0.53;;;;;;;3.89;84.91;99217.81;5115187;27;20534;-55
2021/03/12 01:32:09;;;;;;;2.60;0.93;;;;;;;3.91;84.73;99221.31;5122204;27;20467;-55
2021/03/12 01:34:37;;;;;;;6.80;1.47;;;;;;;3.89;85.00;99225.47;5143444;27;20441;-54
2021/03/12 01:37:03;;;;;;;2.40;0.80;;;;;;;3.88;84.92;99226.28;5135525;27;20460;-53
2021/03/12 01:39:30;;;;;;;5.73;0.97;;;;;;;3.90;84.58;99228.91;5135405;27;20457;-55
2021/03/12 01:41:57;;;;;;;2.80;0.70;;;;;;;3.89;84.70;99217.81;5134288;27;20882;-54
2021/03/12 01:44:24;;;;;;;6.17;1.00;;;;;;;3.89;84.51;99219.50;5134844;27;20456;-55
2021/03/12 01:46:50;;;;;;;3.60;0.60;;;;;;;3.87;84.33;99218.56;5134544;27;20795;-55
2021/03/12 01:49:17;;;;;;;4.90;1.27;;;;;;;3.84;84.66;99231.19;5135190;27;20533;-53
2021/03/12 01:51:44;;;;;;;3.10;0.80;;;;;;;3.84;84.17;99228.66;5135676;27;20831;-52
2021/03/12 01:54:10;;;;;;;4.40;1.40;;;;;;;3.84;84.18;99224.41;5133732;27;20523;-55
2021/03/12 01:56:37;;;;;;;6.50;1.70;;;;;;;3.81;83.98;99226.84;5134734;27;20973;-56
2021/03/12 01:59:05;;;;;;;5.27;1.00;;;;;;;3.85;84.15;99230.38;5133687;27;20738;-51
2021/03/12 02:01:31;;;;;;;4.13;1.13;;;;;;;3.81;84.29;99242.13;5135181;27;20466;-50
2021/03/12 02:03:58;;;;;;;7.30;2.40;;;;;;;3.81;84.33;99234.47;5133421;28;20496;-52
2021/03/12 02:06:24;;;;;;;5.07;1.23;;;;;;;3.80;84.47;99235.28;5134976;28;20537;-53
2021/03/12 02:08:51;;;;;;;4.67;1.10;;;;;;;3.80;84.16;99237.84;5133493;27;20459;-53
2021/03/12 02:11:18;;;;;;;3.40;1.00;;;;;;;3.81;84.44;99242.13;5134188;28;20449;-52
2021/03/12 02:13:50;;;;;;;3.53;0.90;;;;;;;3.81;84.63;99242.13;5133501;28;20460;-54
2021/03/12 02:16:21;;;;;;;5.40;0.80;;;;;;;3.81;84.62;99247.25;5134838;28;20460;-53
2021/03/12 02:18:55;;;;;;;5.00;0.90;;;;;;;3.83;84.33;99237.97;5133939;28;20554;-57
2021/03/12 02:21:27;;;;;;;3.87;0.93;;;;;;;3.82;84.79;99243.88;5134961;28;20460;-51
2021/03/12 02:24:00;;;;;;;6.07;1.10;;;;;;;3.80;84.67;99248.06;5133693;28;20454;-58
2021/03/12 02:26:54;;;;;;;6.97;1.20;;;;;;;3.84;84.46;99243.97;5134872;28;20485;-52
2021/03/12 02:29:23;;;;;;;10.53;2.70;;;;;;;3.86;84.64;99248.34;5131720;28;20472;-53
2021/03/12 02:31:52;;;;;;;7.27;1.00;;;;;;;3.86;84.31;99252.53;5133889;28;20434;-55
2021/03/12 02:34:21;;;;;;;4.50;1.10;;;;;;;3.88;84.47;99256.91;5134811;28;20487;-54
2021/03/12 02:36:49;;;;;;;3.50;0.90;;;;;;;3.91;84.47;99261.28;5134447;28;20449;-57
2021/03/12 02:39:18;;;;;;;12.63;1.77;;;;;;;3.91;84.25;99272.34;5135300;28;20948;-51
2021/03/12 02:41:45;;;;;;;6.80;1.33;;;;;;;3.94;84.08;99266.50;5135383;27;20803;-50
2021/03/12 02:44:12;;;;;;;2.90;1.20;;;;;;;3.95;83.95;99270.81;5135987;27;20435;-56
2021/03/12 02:46:40;;;;;;;7.37;1.43;;;;;;;3.98;84.14;99273.50;5140145;27;20484;-55
2021/03/12 02:49:07;;;;;;;8.63;2.50;;;;;;;3.99;84.19;99275.25;5138724;27;20510;-54
2021/03/12 02:51:35;;;;;;;26.53;4.03;;;;;;;3.99;84.26;99274.41;5140023;27;20539;-53
2021/03/12 02:54:02;;;;;;;9.07;2.60;;;;;;;4.00;84.09;99283.78;5138148;27;20446;-52
2021/03/12 02:56:29;;;;;;;5.10;1.70;;;;;;;4.01;83.99;99288.09;5139713;27;20525;-54
2021/03/12 02:58:56;;;;;;;8.33;2.07;;;;;;;4.04;83.73;99284.00;5138820;27;20492;-51
2021/03/12 03:01:23;;;;;;;3.73;1.60;;;;;;;4.04;83.87;99288.22;5139866;27;20744;-57
2021/03/12 03:03:52;;;;;;;4.17;1.37;;;;;;;4.04;83.87;99284.00;5130644;27;20536;-51
2021/03/12 03:06:19;;;;;;;9.53;1.93;;;;;;;4.04;84.02;99288.22;5139566;27;20462;-55
2021/03/12 03:08:46;;;;;;;11.73;3.40;;;;;;;4.05;83.89;99293.38;5138311;27;20482;-55
2021/03/12 03:11:14;;;;;;;10.97;2.10;;;;;;;4.06;84.19;99304.50;5139512;27;20809;-54
2021/03/12 03:13:55;;;;;;;14.80;3.30;;;;;;;4.06;83.96;99307.03;5137934;27;20480;-56
2021/03/12 03:16:28;;;;;;;5.67;1.70;;;;;;;4.09;83.99;99308.84;5138972;27;20437;-53
2021/03/12 03:18:56;;;;;;;12.00;4.03;;;;;;;4.09;83.74;99314.81;5117696;28;20512;-53
2021/03/12 03:21:23;;;;;;;13.67;2.80;;;;;;;4.13;83.38;99311.59;5118719;28;20944;-53
2021/03/12 03:23:50;;;;;;;5.30;1.57;;;;;;;4.13;83.49;99319.28;5117501;28;20798;-52
2021/03/12 03:26:16;;;;;;;7.00;2.13;;;;;;;4.14;83.43;99320.13;5118508;28;20460;-56
2021/03/12 03:28:43;;;;;;;6.63;2.33;;;;;;;4.10;84.09;99319.13;5117514;28;20456;-52
2021/03/12 03:31:10;;;;;;;12.73;1.83;;;;;;;4.12;83.82;99317.53;5118659;28;20459;-54
2021/03/12 03:33:36;;;;;;;10.63;3.20;;;;;;;4.13;83.99;99326.03;5117469;28;20602;-58
2021/03/12 03:36:05;;;;;;;11.83;1.80;;;;;;;4.13;83.50;99326.94;5117982;28;20488;-54
2021/03/12 03:38:32;;;;;;;6.00;1.20;;;;;;;4.12;83.85;99325.19;5117387;28;20477;-53
2021/03/12 03:40:59;;;;;;;7.47;1.80;;;;;;;4.15;83.30;99332.09;5118639;28;20457;-52
2021/03/12 03:43:28;;;;;;;12.70;1.87;;;;;;;4.18;83.00;99322.91;5117266;28;20485;-53
2021/03/12 03:45:56;;;;;;;5.60;2.47;;;;;;;4.19;82.55;99328.88;5117957;28;20483;-51
2021/03/12 03:48:24;;;;;;;13.70;2.10;;;;;;;4.21;82.26;99334.94;5117175;28;20448;-50
2021/03/12 03:50:51;;;;;;;10.17;1.57;;;;;;;4.20;82.44;99335.72;5118540;28;20431;-51
2021/03/12 03:53:18;;;;;;;12.80;3.87;;;;;;;4.23;82.45;99337.53;5116889;28;20544;-52
2021/03/12 03:55:45;;;;;;;12.43;3.00;;;;;;;4.23;82.26;99350.31;5117828;28;20924;-52
2021/03/12 03:58:14;;;;;;;12.20;3.30;;;;;;;4.23;82.42;99347.75;5116487;28;20463;-50
2021/03/12 04:00:41;;;;;;;19.23;3.53;;;;;;;4.23;82.26;99355.41;5122718;27;20449;-53
2021/03/12 04:03:08;;;;;;;12.23;3.57;;;;;;;4.30;81.31;99352.31;5136525;27;20447;-52
2021/03/12 04:05:35;;;;;;;9.90;2.90;;;;;;;4.29;81.27;99355.69;5137878;27;20483;-50
2021/03/12 04:08:02;;;;;;;13.90;3.80;;;;;;;4.29;80.56;99359.13;5136708;27;20495;-54
2021/03/12 04:10:30;;;;;;;32.03;1.50;;;;;;;4.30;80.45;99372.75;5137663;27;20709;-54
2021/03/12 04:12:56;;;;;;;8.70;3.10;;;;;;;4.28;80.22;99384.59;5136973;27;20616;-51
2021/03/12 04:15:24;;;;;;;6.03;1.53;;;;;;;4.32;79.98;99381.38;5137680;27;20463;-50
2021/03/12 04:17:52;;;;;;;8.60;2.10;;;;;;;4.33;79.14;99383.13;5136260;27;20447;-54
2021/03/12 04:20:19;;;;;;;9.57;2.30;;;;;;;4.31;79.54;99385.59;5137765;27;20551;-52
2021/03/12 04:22:45;;;;;;;16.30;3.37;;;;;;;4.31;79.28;99400.91;5136154;27;20454;-51
2021/03/12 04:25:12;;;;;;;14.53;2.37;;;;;;;4.33;78.72;99413.75;5137445;27;20474;-56
2021/03/12 04:27:40;;;;;;;7.17;2.53;;;;;;;4.33;78.66;99411.22;5136542;27;20450;-53
2021/03/12 04:30:08;;;;;;;7.10;1.83;;;;;;;4.31;78.63;99406.03;5137386;27;20435;-53
2021/03/12 04:32:35;;;;;;;9.83;2.73;;;;;;;4.31;77.91;99417.94;5136163;27;20903;-56
2021/03/12 04:35:02;;;;;;;17.10;3.40;;;;;;;4.31;78.15;99405.16;5137353;27;20435;-56
2021/03/12 04:37:29;;;;;;;13.90;2.90;;;;;;;4.30;78.36;99418.72;5150250;27;20776;-52
2021/03/12 04:39:56;;;;;;;6.47;1.77;;;;;;;4.29;78.33;99417.84;5158198;27;20429;-54
2021/03/12 04:42:22;;;;;;;16.03;3.40;;;;;;;4.29;78.85;99434.84;5156646;27;20446;-57
2021/03/12 04:45:04;;;;;;;6.90;2.33;;;;;;;4.28;78.80;99435.66;5158354;27;20461;-58
2021/03/12 04:47:30;;;;;;;3.33;1.13;;;;;;;4.24;79.13;99444.84;5156252;27;20482;-56
2021/03/12 04:49:57;;;;;;;10.93;2.43;;;;;;;4.20;79.12;99440.41;5158444;27;20456;-52
2021/03/12 04:52:24;;;;;;;7.70;2.27;;;;;;;4.24;79.08;99447.41;5155884;27;20471;-56
2021/03/12 04:54:51;;;;;;;10.37;2.30;;;;;;;4.24;78.72;99444.84;5157764;27;20426;-54
2021/03/12 04:57:19;;;;;;;9.60;2.00;;;;;;;4.22;78.43;99453.25;5156115;27;20445;-54
2021/03/12 04:59:46;;;;;;;7.50;2.77;;;;;;;4.25;77.19;99450.84;5158067;27;20436;-54
2021/03/12 05:02:13;;;;;;;9.10;2.00;;;;;;;4.24;77.31;99460.19;5157214;27;20481;-54
2021/03/12 05:04:40;;;;;;;6.37;1.10;;;;;;;4.24;77.14;99460.19;5157192;27;20456;-54
2021/03/12 05:07:08;;;;;;;7.60;2.00;;;;;;;4.24;76.41;99442.31;5156826;27;20467;-55
2021/03/12 05:09:34;;;;;;;13.93;3.13;;;;;;;4.20;76.61;99465.94;5157949;27;20485;-56
2021/03/12 05:12:01;;;;;;;20.07;2.50;;;;;;;4.24;76.75;99472.94;5153994;27;20526;-54
2021/03/12 05:14:28;;;;;;;4.33;1.00;;;;;;;4.16;76.85;99487.91;5136651;27;20437;-54
2021/03/12 05:16:54;;;;;;;10.73;3.73;;;;;;;4.19;76.22;99470.19;5135488;27;20437;-57
2021/03/12 05:19:23;;;;;;;12.63;2.33;;;;;;;4.19;75.98;99480.41;5136660;27;20476;-54
2021/03/12 05:21:50;;;;;;;12.97;2.67;;;;;;;4.15;76.91;99486.16;5135788;27;20977;-53
2021/03/12 05:24:16;;;;;;;11.07;1.57;;;;;;;4.12;76.96;99491.13;5140660;27;20461;-54
2021/03/12 05:26:43;;;;;;;15.97;4.17;;;;;;;4.08;77.47;99493.44;5138807;27;20458;-55
2021/03/12 05:29:09;;;;;;;3.20;1.07;;;;;;;4.05;78.03;99489.06;5144341;27;20565;-53
2021/03/12 05:31:36;;;;;;;4.87;1.67;;;;;;;4.05;78.48;99494.16;5147231;27;20520;-55
2021/03/12 05:34:03;;;;;;;14.03;2.13;;;;;;;4.05;78.33;99501.81;5155163;27;20502;-56
2021/03/12 05:36:31;;;;;;;7.40;1.90;;;;;;;4.02;78.44;99499.13;5157384;27;20447;-55
2021/03/12 05:38:57;;;;;;;8.60;2.27;;;;;;;4.01;78.20;99507.59;5156172;27;20506;-53
2021/03/12 05:41:24;;;;;;;7.00;1.33;;;;;;;4.02;78.17;99499.13;5157662;27;20455;-53
2021/03/12 05:43:50;;;;;;;10.37;1.80;;;;;;;4.00;78.15;99498.19;5156196;27;20920;-51
2021/03/12 05:46:18;;;;;;;4.50;2.47;;;;;;;4.01;77.13;99520.38;5157087;27;20486;-51
2021/03/12 05:48:45;;;;;;;15.27;3.67;;;;;;;4.02;77.13;99519.56;5156162;27;20449;-50
2021/03/12 05:51:12;;;;;;;5.37;1.57;;;;;;;3.99;77.23;99524.53;5157367;27;20890;-52
2021/03/12 05:53:40;;;;;;;12.57;3.20;;;;;;;4.00;77.23;99532.25;5156177;27;20884;-57
2021/03/12 05:56:06;;;;;;;12.87;3.17;;;;;;;4.01;77.60;99535.69;5156857;27;20458;-53
2021/03/12 05:58:36;;;;;;;3.57;1.50;;;;;;;3.95;78.26;99540.47;5156055;27;20464;-54
2021/03/12 06:01:03;;;;;;;13.63;1.73;;;;;;;3.96;78.20;99529.47;5156663;27;20521;-52
2021/03/12 06:03:30;;;;;;;8.90;1.43;;;;;;;3.96;78.40;99537.13;5142093;27;20450;-53
2021/03/12 06:05:56;;;;;;;5.83;1.50;;;;;;;3.94;78.31;99541.28;5135161;27;20527;-50
2021/03/12 06:08:23;;;;;;;8.20;2.67;;;;;;;3.94;78.28;99556.59;5134818;28;20535;-51
2021/03/12 06:10:51;;;;;;;6.90;1.57;;;;;;;3.91;78.21;99559.88;5136099;28;20459;-57
2021/03/12 06:13:18;;;;;;;15.10;3.23;;;;;;;3.90;78.85;99566.66;5134938;28;20480;-56
2021/03/12 06:15:45;;;;;;;10.90;2.70;;;;;;;3.90;78.64;99561.53;5135688;27;20434;-54
2021/03/12 06:18:14;;;;;;;16.23;2.30;;;;;;;3.89;78.63;99567.44;5138829;27;20523;-51
2021/03/12 06:20:42;;;;;;;6.40;2.00;;;;;;;3.91;78.16;99563.28;5140037;27;20456;-54
2021/03/12 06:23:09;;;;;;;12.33;2.17;;;;;;;3.89;78.05;99569.09;5157427;27;20764;-51
2021/03/12 06:25:36;;;;;;;15.23;2.40;;;;;;;3.88;77.86;99578.47;5160211;27;20463;-51
2021/03/12 06:28:15;;;;;;;5.70;1.53;;;;;;;3.87;77.92;99580.94;5152098;27;20602;-55
2021/03/12 06:30:41;;;;;;;12.80;1.47;;;;;;;3.83;77.34;99587.56;5139720;27;20744;-50
2021/03/12 06:33:08;;;;;;;6.03;2.17;;;;;;;3.82;77.28;99595.13;5138674;27;20446;-50
2021/03/12 06:35:36;;;;;;;15.47;3.17;;;;;;;3.82;77.77;99592.56;5139629;27;20426;-57
2021/03/12 06:38:07;;;;;;;13.63;3.10;;;;;;;3.82;77.25;99603.66;5156889;27;20529;-55
2021/03/12 06:40:37;;;;;;;8.30;1.33;;;;;;;3.86;77.08;99600.50;5160245;27;20532;-54
2021/03/12 06:43:12;;;;;;;11.87;2.53;;;;;;;3.89;76.59;99613.38;5159359;27;20468;-56
2021/03/12 06:45:59;;;;;;;10.17;2.10;;;;;;;3.94;75.93;99608.50;5159600;27;20439;-50
2021/03/12 06:48:27;;;;;;;6.50;1.93;;;;;;;3.95;75.35;99617.91;5158698;27;20921;-52
2021/03/12 06:50:55;;;;;;;10.10;1.90;;;;;;;3.92;75.82;99608.44;5160422;27;20494;-54
2021/03/12 06:53:30;;;;;;;14.93;3.27;;;;;;;3.91;75.73;99614.31;5158853;27;20532;-55
2021/03/12 06:55:59;;;;;;;4.33;1.60;;;;;;;3.93;75.69;99622.06;5159447;27;20440;-57
2021/03/12 06:58:26;;;;;;;16.30;2.77;;;;;;;3.94;75.57;99628.91;5159198;27;20479;-54
2021/03/12 07:00:52;;;;;;;13.13;1.50;;;;;;;3.94;76.02;99628.06;5159896;27;20459;-52
2021/03/12 07:03:26;;;;;;;3.63;1.30;;;;;;;3.95;75.54;99625.56;5158574;27;20524;-53
2021/03/12 07:05:54;;;;;;;5.17;1.70;;;;;;;3.97;75.92;99640.97;5159294;27;20454;-50
2021/03/12 07:08:30;;;;;;;3.90;1.50;;;;;;;3.98;75.52;99646.16;5158562;27;20475;-52
2021/03/12 07:10:57;;;;;;;18.83;3.10;;;;;;;3.98;75.61;99650.38;5158533;27;20433;-56
2021/03/12 07:13:24;;;;;;;12.03;2.80;;;;;;;4.02;75.41;99648.06;5142515;27;20478;-51
2021/03/12 07:15:52;;;;;;;9.70;2.57;;;;;;;4.03;75.66;99659.16;5159597;27;20643;-53
2021/03/12 07:18:20;;;;;;;5.40;1.23;;;;;;;4.01;75.29;99656.50;5154015;27;20472;-53
2021/03/12 07:20:48;;;;;;;10.00;2.93;;;;;;;4.02;74.94;99662.50;5152272;27;20463;-56
2021/03/12 07:23:16;;;;;;;3.83;1.90;;;;;;;4.03;75.08;99654.03;5158025;27;20479;-50
2021/03/12 07:25:45;;;;;;;7.60;2.27;;;;;;;4.02;75.05;99667.59;5158689;27;20492;-54
2021/03/12 07:28:14;;;;;;;5.90;2.10;;;;;;;4.04;75.17;99673.66;5149126;27;20526;-55
2021/03/12 07:30:42;;;;;;;12.60;1.60;;;;;;;4.05;74.63;99672.84;5138955;27;20431;-54
2021/03/12 07:33:09;;;;;;;5.53;1.80;;;;;;;4.09;74.84;99673.91;5123541;27;20471;-57
2021/03/12 07:35:37;;;;;;;5.13;1.77;;;;;;;4.06;75.15;99669.53;5138278;27;20445;-56
2021/03/12 07:38:07;;;;;;;9.57;1.87;;;;;;;4.08;74.86;99678.13;5137423;27;20447;-54
2021/03/12 07:40:34;;;;;;;4.53;1.67;;;;;;;4.10;75.09;99686.72;5138843;27;20460;-53
2021/03/12 07:43:01;;;;;;;3.07;0.87;;;;;;;4.12;74.71;99690.25;5137354;27;20834;-52
2021/03/12 07:45:28;;;;;;;11.33;2.40;;;;;;;4.10;74.62;99694.38;5138248;27;20460;-53
2021/03/12 07:47:55;;;;;;;6.87;2.30;;;;;;;4.08;74.13;99697.66;5147674;27;20555;-52
2021/03/12 07:50:28;;;;;;;6.80;0.90;;;;;;;4.10;74.74;99706.31;5158444;27;20437;-51
2021/03/12 07:52:55;;;;;;;11.40;2.37;;;;;;;4.11;74.46;99698.69;5157947;27;20449;-54
2021/03/12 07:55:53;;;;;;;3.80;1.20;;;;;;;4.13;74.71;99703.88;5158223;27;20438;-54
2021/03/12 07:58:49;;;;;;;6.97;1.73;;;;;;;4.14;74.60;99708.19;5140348;27;20476;-53
2021/03/12 08:01:16;;;;;;;6.07;1.20;;;;;;;4.15;74.68;99710.81;5158582;27;20508;-52
2021/03/12 08:03:43;;;;;;;9.63;2.27;;;;;;;4.19;74.83;99712.75;5157786;27;20506;-54
2021/03/12 08:06:34;;;;;;;4.83;1.10;;;;;;;4.22;74.84;99703.47;5158102;27;20795;-55
2021/03/12 08:09:02;;;;;;;3.30;1.10;;;;;;;4.20;74.86;99718.72;5134248;27;20591;-49
2021/03/12 08:11:33;;;;;;;4.70;0.80;;;;;;;4.19;74.74;99717.84;5158696;27;20526;-54
2021/03/12 08:14:16;;;;;;;3.10;1.17;;;;;;;4.22;75.39;99721.34;5157396;27;20541;-55
2021/03/12 08:17:14;;;;;;;3.10;1.10;;;;;;;4.24;74.96;99720.63;5158863;27;20466;-54
2021/03/12 08:19:44;;;;;;;4.13;1.23;;;;;;;4.25;75.19;99727.50;5158538;27;20455;-55
2021/03/12 08:22:42;;;;;;;6.60;1.63;;;;;;;4.32;75.26;99728.69;5156750;27;20478;-57
2021/03/12 08:25:11;;;;;;;6.30;1.63;;;;;;;4.38;75.36;99731.56;5141899;27;20460;-50
2021/03/12 08:27:44;;;;;;;73.93;3.20;;;;;;;4.40;74.73;99723.94;5152989;27;20454;-56
2021/03/12 08:30:34;;;;;;;4.33;1.03;;;;;;;4.42;74.65;99727.47;5158579;27;20800;-57
2021/03/12 08:33:01;;;;;;;3.93;1.27;;;;;;;4.52;74.26;99731.38;5157138;27;20450;-52
2021/03/12 08:35:40;;;;;;;6.20;1.73;;;;;;;4.58;73.69;99717.19;5157717;27;20524;-49
2021/03/12 08:38:37;;;;;;;9.10;1.73;;;;;;;4.65;73.34;99723.50;5156642;27;20471;-53
2021/03/12 08:41:07;;;;;;;6.53;1.47;;;;;;;4.76;73.56;99730.81;5157215;27;20556;-56
2021/03/12 08:43:35;;;;;;;3.63;1.20;;;;;;;4.79;73.14;99733.50;5157028;27;20475;-52
2021/03/12 08:46:03;;;;;;;1.50;0.50;;;;;;;4.73;73.29;99732.41;5144893;27;20491;-55
2021/03/12 08:48:31;;;;;;;5.17;1.27;;;;;;;4.76;73.06;99725.72;5156521;27;20453;-53
2021/03/12 08:50:59;;;;;;;12.33;1.40;;;;;;;4.78;72.81;99727.53;5157442;27;20524;-51
2021/03/12 08:53:29;;;;;;;7.87;1.80;;;;;;;4.76;72.21;99731.69;5142036;27;20456;-56
2021/03/12 08:55:57;;;;;;;5.00;1.20;;;;;;;4.90;72.66;99734.91;5152129;27;20546;-55
2021/03/12 08:58:25;;;;;;;7.47;1.93;;;;;;;4.98;72.70;99748.06;5134863;27;20551;-56
2021/03/12 09:00:54;;;;;;;12.00;3.20;;;;;;;4.89;72.50;99735.72;5145575;27;20466;-51
2021/03/12 09:03:22;;;;;;;5.00;1.97;;;;;;;4.97;72.72;99731.00;5117619;27;20550;-57
2021/03/12 09:05:50;;;;;;;3.50;1.10;;;;;;;5.02;71.98;99749.97;5140417;27;20479;-55
2021/03/12 09:08:21;;;;;;;11.90;1.70;;;;;;;4.98;71.69;99743.81;5127307;27;20504;-56
2021/03/12 09:10:48;;;;;;;3.20;0.97;;;;;;;5.14;72.57;99732.66;5137704;27;20474;-53
2021/03/12 09:13:17;;;;;;;5.87;1.40;;;;;;;5.11;71.45;99739.28;5128928;27;20445;-54
2021/03/12 09:15:44;;;;;;;2.87;0.80;;;;;;;5.13;71.85;99742.81;5147106;27;20538;-55
2021/03/12 09:18:33;;;;;;;6.17;1.80;;;;;;;5.23;71.52;99745.00;5139390;27;20491;-56
2021/03/12 09:21:01;;;;;;;11.90;1.80;;;;;;;5.25;70.53;99747.63;5154115;27;20430;-56
2021/03/12 09:23:35;;;;;;;7.03;1.63;;;;;;;5.43;70.41;99747.59;5151125;27;20468;-53
2021/03/12 09:26:03;;;;;;;8.30;1.17;;;;;;;5.42;70.20;99750.97;5153460;27;20546;-54
2021/03/12 09:28:35;;;;;;;9.63;1.30;;;;;;;5.34;69.72;99749.75;5142596;27;20550;-53
2021/03/12 09:31:03;;;;;;;7.00;1.67;;;;;;;5.40;69.18;99740.66;5141995;27;20478;-54
2021/03/12 09:33:33;;;;;;;8.33;1.70;;;;;;;5.58;69.26;99751.69;5151743;27;20471;-57
2021/03/12 09:36:01;;;;;;;8.13;2.20;;;;;;;5.37;68.57;99748.19;5153389;27;20467;-51
2021/03/12 09:38:38;;;;;;;11.40;1.50;;;;;;;5.39;68.81;99748.28;5150289;27;20756;-51
2021/03/12 09:41:16;;;;;;;7.93;1.37;;;;;;;5.37;68.92;99740.53;5153684;27;20463;-51
2021/03/12 09:43:45;;;;;;;11.30;1.20;;;;;;;5.37;68.41;99761.00;5151695;27;20493;-50
2021/03/12 09:46:12;;;;;;;8.20;1.40;;;;;;;5.38;68.46;99751.63;5153066;27;20469;-53
2021/03/12 09:48:41;;;;;;;9.03;1.60;;;;;;;5.41;68.39;99749.22;5152279;27;20534;-50
2021/03/12 09:51:08;;;;;;;4.93;1.50;;;;;;;5.53;68.64;99760.03;5140053;27;20495;-54
2021/03/12 09:53:37;;;;;;;4.00;1.17;;;;;;;5.45;69.13;99748.56;5135648;27;20454;-53
2021/03/12 09:56:05;;;;;;;11.87;1.17;;;;;;;5.39;68.65;99745.72;5135368;27;20439;-56
2021/03/12 09:58:32;;;;;;;6.83;1.50;;;;;;;5.47;68.72;99753.72;5134465;27;20483;-57
2021/03/12 10:01:12;;;;;;;3.60;1.40;;;;;;;5.64;68.37;99762.22;5135909;27;20526;-53
2021/03/12 10:03:39;;;;;;;7.40;1.97;;;;;;;5.68;67.44;99764.09;5134501;27;20547;-50
2021/03/12 10:06:08;;;;;;;6.77;1.30;;;;;;;5.51;67.55;99756.53;5138298;27;20470;-53
2021/03/12 10:09:03;;;;;;;4.40;1.37;;;;;;;5.51;67.89;99760.75;5153563;27;20475;-52
2021/03/12 10:11:41;;;;;;;19.13;2.20;;;;;;;5.62;67.48;99758.69;5153196;27;20885;-56
2021/03/12 10:14:27;;;;;;;14.03;2.73;;;;;;;5.51;66.74;99761.66;5139941;27;20517;-53
2021/03/12 10:17:16;;;;;;;10.20;2.30;;;;;;;5.60;67.72;99762.88;5134125;27;20473;-55
2021/03/12 10:19:46;;;;;;;5.97;2.20;;;;;;;5.65;67.25;99763.97;5151903;27;20520;-53
2021/03/12 10:22:16;;;;;;;10.90;2.47;;;;;;;5.63;67.55;99760.44;5138189;27;20475;-55
2021/03/12 10:24:45;;;;;;;5.13;1.27;;;;;;;5.61;67.02;99751.81;5152099;27;20971;-56
2021/03/12 10:27:17;;;;;;;9.43;1.93;;;;;;;5.48;66.82;99756.38;5140583;27;20448;-55
2021/03/12 10:29:44;;;;;;;6.23;1.70;;;;;;;5.60;66.99;99762.88;5151726;27;20466;-54
2021/03/12 10:32:12;;;;;;;4.17;1.00;;;;;;;5.62;66.40;99753.56;5151112;27;20541;-55
2021/03/12 10:34:42;;;;;;;11.67;2.53;;;;;;;5.71;66.79;99745.44;5152591;27;22143;-57
2021/03/12 10:37:11;;;;;;;6.90;2.20;;;;;;;5.72;66.56;99752.31;5151409;27;20827;-58
2021/03/12 10:39:47;;;;;;;10.93;2.93;;;;;;;5.68;66.52;99752.19;5135758;28;20483;-55
2021/03/12 10:42:14;;;;;;;2.37;0.90;;;;;;;5.62;66.23;99753.56;5136648;27;20987;-57
2021/03/12 10:44:52;;;;;;;8.20;1.83;;;;;;;5.79;66.67;99752.66;5138160;27;20458;-56
2021/03/12 10:47:19;;;;;;;5.40;2.40;;;;;;;5.83;66.29;99747.69;5139733;27;20490;-55
2021/03/12 10:49:46;;;;;;;4.80;1.53;;;;;;;5.90;66.90;99762.50;5138774;27;20463;-58
2021/03/12 10:52:27;;;;;;;19.43;2.50;;;;;;;5.89;66.66;99753.09;5138183;27;20475;-50
2021/03/12 10:54:56;;;;;;;7.50;1.97;;;;;;;5.77;66.37;99759.41;5127683;27;20414;-56
2021/03/12 10:57:40;;;;;;;5.17;1.43;;;;;;;5.70;66.38;99736.00;5147874;27;20887;-49
2021/03/12 11:00:13;;;;;;;10.93;1.83;;;;;;;5.71;66.44;99745.44;5152151;27;20458;-53
2021/03/12 11:02:41;;;;;;;6.40;1.47;;;;;;;5.80;66.75;99754.41;5150368;27;20487;-54
2021/03/12 11:05:10;;;;;;;11.47;2.10;;;;;;;5.78;66.91;99750.91;5143862;27;20464;-55
2021/03/12 11:07:36;;;;;;;9.77;1.83;;;;;;;5.78;66.86;99750.91;5154524;27;20475;-52
2021/03/12 11:10:06;;;;;;;7.93;1.77;;;;;;;5.86;66.77;99752.94;5148432;27;20551;-50
2021/03/12 11:12:41;;;;;;;6.03;2.40;;;;;;;5.97;66.20;99746.59;5154842;27;20928;-54
2021/03/12 11:15:10;;;;;;;5.70;1.80;;;;;;;6.13;66.36;99742.19;5144797;27;20521;-51
2021/03/12 11:17:40;;;;;;;8.67;2.00;;;;;;;5.98;65.68;99750.03;5153005;27;20486;-53
2021/03/12 11:20:12;;;;;;;1.90;0.77;;;;;;;5.86;65.85;99741.03;5156434;27;21015;-55
2021/03/12 11:22:38;;;;;;;6.53;1.83;;;;;;;5.89;66.08;99743.69;5144212;27;20506;-50
2021/03/12 11:25:08;;;;;;;3.90;1.40;;;;;;;5.85;65.58;99733.25;5152045;27;20466;-53
2021/03/12 11:27:35;;;;;;;2.80;1.23;;;;;;;5.92;66.19;99740.41;5154798;27;20506;-54
2021/03/12 11:30:05;;;;;;;6.13;1.00;;;;;;;6.00;66.13;99733.06;5155964;27;20471;-54
2021/03/12 11:32:32;;;;;;;8.13;1.80;;;;;;;5.98;65.91;99739.78;5154383;27;20475;-56
2021/03/12 11:35:00;;;;;;;4.07;1.80;;;;;;;5.83;66.00;99747.69;5155544;27;20448;-49
2021/03/12 11:37:26;;;;;;;12.10;1.10;;;;;;;5.76;66.44;99734.63;5155314;27;20471;-53
2021/03/12 11:39:53;;;;;;;4.67;2.03;;;;;;;5.74;66.51;99735.34;5156110;27;20823;-53
2021/03/12 11:42:20;;;;;;;11.23;1.30;;;;;;;5.90;66.35;99744.59;5151285;27;20486;-56
2021/03/12 11:44:48;;;;;;;11.17;1.80;;;;;;;6.05;66.41;99739.31;5152876;27;20503;-54
2021/03/12 11:47:14;;;;;;;7.10;2.30;;;;;;;6.17;65.89;99741.50;5138391;27;20477;-51
2021/03/12 11:49:45;;;;;;;6.27;1.30;;;;;;;6.33;65.15;99731.13;5154753;27;20494;-52